sensor_id;sensor_type;location;lat;lon;timestamp;P1;durP1;ratioP1;P2;durP2;ratioP2
64037;SDS011;54641;50.168;8.492;2023-02-01T00:02:08;8.00;;;3.70;;
64037;SDS011;54641;50.168;8.492;2023-02-01T00:04:39;8.70;;;4.40;;
64037;SDS011;54641;50.168;8.492;2023-02-01T00:07:10;7.40;;;4.00;;
64037;SDS011;54641;50.168;8.492;2023-02-01T00:09:41;8.00;;;4.00;;
64037;SDS011;54641;50.168;8.492;2023-02-01T00:12:12;5.60;;;2.60;;
64037;SDS011;54641;50.168;8.492;2023-02-01T00:14:42;6.50;;;2.50;;
64037;SDS011;54641;50.168;8.492;2023-02-01T00:17:13;9.10;;;6.00;;
64037;SDS011;54641;50.168;8.492;2023-02-01T00:19:43;7.40;;;5.10;;
64037;SDS011;54641;50.168;8.492;2023-02-01T00:22:14;6.90;;;4.60;;
64037;SDS011;54641;50.168;8.492;2023-02-01T00:24:44;8.40;;;4.80;;
64037;SDS011;54641;50.168;8.492;2023-02-01T00:27:14;8.10;;;4.40;;
64037;SDS011;54641;50.168;8.492;2023-02-01T00:32:16;7.80;;;4.10;;
64037;SDS011;54641;50.168;8.492;2023-02-01T00:34:47;8.60;;;5.10;;
64037;SDS011;54641;50.168;8.492;2023-02-01T00:37:19;7.50;;;4.40;;
64037;SDS011;54641;50.168;8.492;2023-02-01T00:39:50;7.40;;;3.40;;
64037;SDS011;54641;50.168;8.492;2023-02-01T00:42:23;8.60;;;5.10;;
64037;SDS011;54641;50.168;8.492;2023-02-01T00:44:53;7.90;;;4.50;;
64037;SDS011;54641;50.168;8.492;2023-02-01T00:47:23;9.00;;;5.70;;
64037;SDS011;54641;50.168;8.492;2023-02-01T00:49:54;7.50;;;4.90;;
64037;SDS011;54641;50.168;8.492;2023-02-01T00:52:24;8.10;;;5.10;;
64037;SDS011;54641;50.168;8.492;2023-02-01T00:54:55;8.70;;;5.40;;
64037;SDS011;54641;50.168;8.492;2023-02-01T00:57:25;8.00;;;4.70;;
64037;SDS011;54641;50.168;8.492;2023-02-01T00:59:56;11.30;;;6.80;;
64037;SDS011;54641;50.168;8.492;2023-02-01T01:02:26;5.60;;;3.70;;
64037;SDS011;54641;50.168;8.492;2023-02-01T01:04:57;8.90;;;5.50;;
64037;SDS011;54641;50.168;8.492;2023-02-01T01:07:28;9.30;;;5.10;;
64037;SDS011;54641;50.168;8.492;2023-02-01T01:09:58;8.40;;;5.10;;
64037;SDS011;54641;50.168;8.492;2023-02-01T01:12:29;7.20;;;4.80;;
64037;SDS011;54641;50.168;8.492;2023-02-01T01:14:59;10.00;;;5.50;;
64037;SDS011;54641;50.168;8.492;2023-02-01T01:17:31;8.40;;;5.50;;
64037;SDS011;54641;50.168;8.492;2023-02-01T01:20:02;6.10;;;4.10;;
64037;SDS011;54641;50.168;8.492;2023-02-01T01:22:33;7.30;;;5.00;;
64037;SDS011;54641;50.168;8.492;2023-02-01T01:25:03;7.20;;;4.80;;
64037;SDS011;54641;50.168;8.492;2023-02-01T01:27:35;10.20;;;5.70;;
64037;SDS011;54641;50.168;8.492;2023-02-01T01:30:06;7.20;;;3.90;;
64037;SDS011;54641;50.168;8.492;2023-02-01T01:32:38;7.00;;;4.90;;
64037;SDS011;54641;50.168;8.492;2023-02-01T01:35:09;8.20;;;4.70;;
64037;SDS011;54641;50.168;8.492;2023-02-01T01:37:39;8.90;;;4.60;;
64037;SDS011;54641;50.168;8.492;2023-02-01T01:40:11;8.30;;;4.40;;
64037;SDS011;54641;50.168;8.492;2023-02-01T01:42:42;10.10;;;5.70;;
64037;SDS011;54641;50.168;8.492;2023-02-01T01:45:19;8.50;;;5.60;;
64037;SDS011;54641;50.168;8.492;2023-02-01T01:47:53;8.20;;;5.00;;
64037;SDS011;54641;50.168;8.492;2023-02-01T01:50:26;8.40;;;5.30;;
64037;SDS011;54641;50.168;8.492;2023-02-01T01:53:00;8.30;;;4.50;;
64037;SDS011;54641;50.168;8.492;2023-02-01T01:55:37;8.70;;;5.40;;
64037;SDS011;54641;50.168;8.492;2023-02-01T01:58:10;10.20;;;5.60;;
64037;SDS011;54641;50.168;8.492;2023-02-01T02:00:42;8.90;;;6.30;;
64037;SDS011;54641;50.168;8.492;2023-02-01T02:03:19;8.70;;;5.60;;
64037;SDS011;54641;50.168;8.492;2023-02-01T02:05:51;7.00;;;4.60;;
64037;SDS011;54641;50.168;8.492;2023-02-01T02:08:23;9.20;;;6.20;;
64037;SDS011;54641;50.168;8.492;2023-02-01T02:10:54;9.90;;;6.30;;
64037;SDS011;54641;50.168;8.492;2023-02-01T02:13:29;9.90;;;5.60;;
64037;SDS011;54641;50.168;8.492;2023-02-01T02:16:08;7.60;;;5.40;;
64037;SDS011;54641;50.168;8.492;2023-02-01T02:18:48;10.00;;;6.00;;
64037;SDS011;54641;50.168;8.492;2023-02-01T02:21:30;8.50;;;6.10;;
64037;SDS011;54641;50.168;8.492;2023-02-01T02:24:20;12.40;;;7.00;;
64037;SDS011;54641;50.168;8.492;2023-02-01T02:27:18;8.70;;;5.60;;
64037;SDS011;54641;50.168;8.492;2023-02-01T02:36:17;8.80;;;5.90;;
64037;SDS011;54641;50.168;8.492;2023-02-01T02:38:55;10.60;;;6.50;;
64037;SDS011;54641;50.168;8.492;2023-02-01T02:41:33;9.00;;;5.50;;
64037;SDS011;54641;50.168;8.492;2023-02-01T02:44:29;10.70;;;5.00;;
64037;SDS011;54641;50.168;8.492;2023-02-01T02:47:23;10.70;;;5.70;;
64037;SDS011;54641;50.168;8.492;2023-02-01T02:50:07;13.20;;;6.00;;
64037;SDS011;54641;50.168;8.492;2023-02-01T02:53:12;8.00;;;5.00;;
64037;SDS011;54641;50.168;8.492;2023-02-01T02:56:05;7.50;;;4.20;;
64037;SDS011;54641;50.168;8.492;2023-02-01T02:58:55;12.60;;;5.20;;
64037;SDS011;54641;50.168;8.492;2023-02-01T03:01:44;11.00;;;4.60;;
64037;SDS011;54641;50.168;8.492;2023-02-01T03:04:32;8.00;;;4.20;;
64037;SDS011;54641;50.168;8.492;2023-02-01T03:07:13;10.30;;;4.60;;
64037;SDS011;54641;50.168;8.492;2023-02-01T03:10:00;7.50;;;3.90;;
64037;SDS011;54641;50.168;8.492;2023-02-01T03:12:36;7.00;;;4.00;;
64037;SDS011;54641;50.168;8.492;2023-02-01T03:15:26;9.50;;;4.50;;
64037;SDS011;54641;50.168;8.492;2023-02-01T03:18:02;7.70;;;3.60;;
64037;SDS011;54641;50.168;8.492;2023-02-01T03:20:37;10.50;;;4.90;;
64037;SDS011;54641;50.168;8.492;2023-02-01T03:23:10;11.90;;;4.50;;
64037;SDS011;54641;50.168;8.492;2023-02-01T03:25:44;7.50;;;4.40;;
64037;SDS011;54641;50.168;8.492;2023-02-01T03:28:18;8.30;;;4.50;;
64037;SDS011;54641;50.168;8.492;2023-02-01T03:38:14;10.40;;;4.40;;
64037;SDS011;54641;50.168;8.492;2023-02-01T03:40:51;12.20;;;5.50;;
64037;SDS011;54641;50.168;8.492;2023-02-01T03:45:52;11.70;;;5.10;;
64037;SDS011;54641;50.168;8.492;2023-02-01T03:48:26;9.80;;;4.70;;
64037;SDS011;54641;50.168;8.492;2023-02-01T03:50:58;9.70;;;5.70;;
64037;SDS011;54641;50.168;8.492;2023-02-01T03:53:30;7.30;;;4.30;;
64037;SDS011;54641;50.168;8.492;2023-02-01T03:56:01;12.30;;;5.00;;
64037;SDS011;54641;50.168;8.492;2023-02-01T03:58:32;10.10;;;4.20;;
64037;SDS011;54641;50.168;8.492;2023-02-01T04:01:03;10.80;;;4.80;;
64037;SDS011;54641;50.168;8.492;2023-02-01T04:03:34;10.90;;;5.40;;
64037;SDS011;54641;50.168;8.492;2023-02-01T04:06:05;10.10;;;4.30;;
64037;SDS011;54641;50.168;8.492;2023-02-01T04:08:36;4.50;;;2.20;;
64037;SDS011;54641;50.168;8.492;2023-02-01T04:11:06;7.40;;;4.10;;
64037;SDS011;54641;50.168;8.492;2023-02-01T04:13:37;9.90;;;4.80;;
64037;SDS011;54641;50.168;8.492;2023-02-01T04:16:07;9.10;;;4.70;;
64037;SDS011;54641;50.168;8.492;2023-02-01T04:18:37;8.80;;;4.30;;
64037;SDS011;54641;50.168;8.492;2023-02-01T04:21:08;10.40;;;5.10;;
64037;SDS011;54641;50.168;8.492;2023-02-01T04:23:38;9.40;;;4.40;;
64037;SDS011;54641;50.168;8.492;2023-02-01T04:26:09;9.80;;;4.80;;
64037;SDS011;54641;50.168;8.492;2023-02-01T04:28:39;11.30;;;4.90;;
64037;SDS011;54641;50.168;8.492;2023-02-01T04:31:09;9.60;;;4.30;;
64037;SDS011;54641;50.168;8.492;2023-02-01T04:33:40;9.80;;;5.50;;
64037;SDS011;54641;50.168;8.492;2023-02-01T04:36:11;8.50;;;4.50;;
64037;SDS011;54641;50.168;8.492;2023-02-01T04:38:41;11.40;;;4.30;;
64037;SDS011;54641;50.168;8.492;2023-02-01T04:41:11;9.00;;;4.60;;
64037;SDS011;54641;50.168;8.492;2023-02-01T04:43:43;8.80;;;4.60;;
64037;SDS011;54641;50.168;8.492;2023-02-01T04:46:13;8.20;;;4.00;;
64037;SDS011;54641;50.168;8.492;2023-02-01T04:48:44;8.10;;;4.00;;
64037;SDS011;54641;50.168;8.492;2023-02-01T04:51:15;9.10;;;3.80;;
64037;SDS011;54641;50.168;8.492;2023-02-01T04:53:46;9.80;;;3.60;;
64037;SDS011;54641;50.168;8.492;2023-02-01T04:56:16;9.50;;;3.60;;
64037;SDS011;54641;50.168;8.492;2023-02-01T04:58:47;8.60;;;4.30;;
64037;SDS011;54641;50.168;8.492;2023-02-01T05:01:17;9.00;;;3.70;;
64037;SDS011;54641;50.168;8.492;2023-02-01T05:03:47;15.00;;;5.40;;
64037;SDS011;54641;50.168;8.492;2023-02-01T05:06:18;9.20;;;3.90;;
64037;SDS011;54641;50.168;8.492;2023-02-01T05:08:48;9.20;;;3.50;;
64037;SDS011;54641;50.168;8.492;2023-02-01T05:11:19;11.90;;;3.80;;
64037;SDS011;54641;50.168;8.492;2023-02-01T05:14:07;9.70;;;4.10;;
64037;SDS011;54641;50.168;8.492;2023-02-01T05:16:37;19.30;;;4.00;;
64037;SDS011;54641;50.168;8.492;2023-02-01T05:19:08;8.90;;;2.90;;
64037;SDS011;54641;50.168;8.492;2023-02-01T05:21:39;8.10;;;3.20;;
64037;SDS011;54641;50.168;8.492;2023-02-01T05:24:09;9.90;;;3.40;;
64037;SDS011;54641;50.168;8.492;2023-02-01T05:26:42;6.80;;;3.00;;
64037;SDS011;54641;50.168;8.492;2023-02-01T05:29:13;9.70;;;4.00;;
64037;SDS011;54641;50.168;8.492;2023-02-01T05:31:45;9.40;;;3.50;;
64037;SDS011;54641;50.168;8.492;2023-02-01T05:34:16;7.90;;;2.60;;
64037;SDS011;54641;50.168;8.492;2023-02-01T05:36:47;7.40;;;2.70;;
64037;SDS011;54641;50.168;8.492;2023-02-01T05:39:17;12.60;;;3.20;;
64037;SDS011;54641;50.168;8.492;2023-02-01T05:41:47;9.00;;;3.40;;
64037;SDS011;54641;50.168;8.492;2023-02-01T05:44:18;12.60;;;3.30;;
64037;SDS011;54641;50.168;8.492;2023-02-01T05:46:48;12.20;;;3.30;;
64037;SDS011;54641;50.168;8.492;2023-02-01T05:49:19;11.70;;;3.10;;
64037;SDS011;54641;50.168;8.492;2023-02-01T05:51:50;9.20;;;2.20;;
64037;SDS011;54641;50.168;8.492;2023-02-01T05:54:20;10.50;;;3.20;;
64037;SDS011;54641;50.168;8.492;2023-02-01T05:56:51;8.80;;;2.40;;
64037;SDS011;54641;50.168;8.492;2023-02-01T05:59:21;9.90;;;3.30;;
64037;SDS011;54641;50.168;8.492;2023-02-01T06:01:51;15.70;;;3.70;;
64037;SDS011;54641;50.168;8.492;2023-02-01T06:04:22;15.10;;;3.70;;
64037;SDS011;54641;50.168;8.492;2023-02-01T06:06:53;13.10;;;3.70;;
64037;SDS011;54641;50.168;8.492;2023-02-01T06:09:23;12.70;;;3.30;;
64037;SDS011;54641;50.168;8.492;2023-02-01T06:11:54;14.00;;;3.40;;
64037;SDS011;54641;50.168;8.492;2023-02-01T06:14:25;15.60;;;3.70;;
64037;SDS011;54641;50.168;8.492;2023-02-01T06:16:56;7.80;;;3.60;;
64037;SDS011;54641;50.168;8.492;2023-02-01T06:19:27;11.30;;;3.60;;
64037;SDS011;54641;50.168;8.492;2023-02-01T06:21:57;10.20;;;3.50;;
64037;SDS011;54641;50.168;8.492;2023-02-01T06:24:28;15.00;;;4.10;;
64037;SDS011;54641;50.168;8.492;2023-02-01T06:26:58;11.90;;;3.20;;
64037;SDS011;54641;50.168;8.492;2023-02-01T06:29:29;10.90;;;3.70;;
64037;SDS011;54641;50.168;8.492;2023-02-01T06:31:59;11.10;;;4.00;;
64037;SDS011;54641;50.168;8.492;2023-02-01T06:34:30;13.70;;;3.90;;
64037;SDS011;54641;50.168;8.492;2023-02-01T06:37:01;10.80;;;3.30;;
64037;SDS011;54641;50.168;8.492;2023-02-01T06:39:32;14.50;;;3.80;;
64037;SDS011;54641;50.168;8.492;2023-02-01T06:42:03;15.60;;;4.50;;
64037;SDS011;54641;50.168;8.492;2023-02-01T06:44:34;10.60;;;3.60;;
64037;SDS011;54641;50.168;8.492;2023-02-01T06:47:04;13.80;;;3.80;;
64037;SDS011;54641;50.168;8.492;2023-02-01T06:49:36;13.50;;;3.30;;
64037;SDS011;54641;50.168;8.492;2023-02-01T06:52:08;14.90;;;3.50;;
64037;SDS011;54641;50.168;8.492;2023-02-01T06:54:38;14.30;;;3.40;;
64037;SDS011;54641;50.168;8.492;2023-02-01T06:57:08;7.60;;;2.90;;
64037;SDS011;54641;50.168;8.492;2023-02-01T06:59:39;13.80;;;4.50;;
64037;SDS011;54641;50.168;8.492;2023-02-01T07:02:10;9.80;;;2.90;;
64037;SDS011;54641;50.168;8.492;2023-02-01T07:04:41;9.30;;;3.70;;
64037;SDS011;54641;50.168;8.492;2023-02-01T07:07:12;5.60;;;2.40;;
64037;SDS011;54641;50.168;8.492;2023-02-01T07:09:42;8.20;;;2.50;;
64037;SDS011;54641;50.168;8.492;2023-02-01T07:12:13;9.00;;;3.00;;
64037;SDS011;54641;50.168;8.492;2023-02-01T07:14:43;10.70;;;2.90;;
64037;SDS011;54641;50.168;8.492;2023-02-01T07:17:14;13.50;;;3.00;;
64037;SDS011;54641;50.168;8.492;2023-02-01T07:19:44;8.10;;;2.50;;
64037;SDS011;54641;50.168;8.492;2023-02-01T07:22:17;8.40;;;2.30;;
64037;SDS011;54641;50.168;8.492;2023-02-01T07:24:47;8.00;;;1.80;;
64037;SDS011;54641;50.168;8.492;2023-02-01T07:27:17;11.40;;;3.00;;
64037;SDS011;54641;50.168;8.492;2023-02-01T07:29:48;11.10;;;3.30;;
64037;SDS011;54641;50.168;8.492;2023-02-01T07:32:19;7.80;;;2.50;;
64037;SDS011;54641;50.168;8.492;2023-02-01T07:34:49;10.80;;;2.90;;
64037;SDS011;54641;50.168;8.492;2023-02-01T07:37:20;10.50;;;2.60;;
64037;SDS011;54641;50.168;8.492;2023-02-01T07:39:51;8.10;;;2.70;;
64037;SDS011;54641;50.168;8.492;2023-02-01T07:42:21;8.40;;;2.30;;
64037;SDS011;54641;50.168;8.492;2023-02-01T07:44:52;14.80;;;3.60;;
64037;SDS011;54641;50.168;8.492;2023-02-01T07:47:22;9.50;;;3.10;;
64037;SDS011;54641;50.168;8.492;2023-02-01T07:49:53;7.40;;;2.30;;
64037;SDS011;54641;50.168;8.492;2023-02-01T07:52:23;7.00;;;2.00;;
64037;SDS011;54641;50.168;8.492;2023-02-01T07:54:54;8.50;;;2.40;;
64037;SDS011;54641;50.168;8.492;2023-02-01T07:57:24;9.50;;;2.90;;
64037;SDS011;54641;50.168;8.492;2023-02-01T07:59:55;18.80;;;3.50;;
64037;SDS011;54641;50.168;8.492;2023-02-01T08:02:43;11.40;;;2.20;;
64037;SDS011;54641;50.168;8.492;2023-02-01T08:05:14;10.80;;;3.00;;
64037;SDS011;54641;50.168;8.492;2023-02-01T08:07:44;4.60;;;1.80;;
64037;SDS011;54641;50.168;8.492;2023-02-01T08:10:19;10.40;;;2.90;;
64037;SDS011;54641;50.168;8.492;2023-02-01T08:12:50;10.20;;;3.10;;
64037;SDS011;54641;50.168;8.492;2023-02-01T08:15:20;11.70;;;3.00;;
64037;SDS011;54641;50.168;8.492;2023-02-01T08:17:51;9.50;;;2.80;;
64037;SDS011;54641;50.168;8.492;2023-02-01T08:20:22;9.30;;;2.80;;
64037;SDS011;54641;50.168;8.492;2023-02-01T08:22:53;8.90;;;2.40;;
64037;SDS011;54641;50.168;8.492;2023-02-01T08:25:24;7.30;;;2.10;;
64037;SDS011;54641;50.168;8.492;2023-02-01T08:27:55;12.80;;;2.30;;
64037;SDS011;54641;50.168;8.492;2023-02-01T08:30:25;15.30;;;2.70;;
64037;SDS011;54641;50.168;8.492;2023-02-01T08:32:56;9.80;;;2.60;;
64037;SDS011;54641;50.168;8.492;2023-02-01T08:35:28;9.60;;;2.40;;
64037;SDS011;54641;50.168;8.492;2023-02-01T08:38:10;7.50;;;1.90;;
64037;SDS011;54641;50.168;8.492;2023-02-01T08:40:41;13.50;;;3.50;;
64037;SDS011;54641;50.168;8.492;2023-02-01T08:43:11;8.10;;;2.50;;
64037;SDS011;54641;50.168;8.492;2023-02-01T08:45:42;12.40;;;2.60;;
64037;SDS011;54641;50.168;8.492;2023-02-01T08:48:12;12.10;;;2.30;;
64037;SDS011;54641;50.168;8.492;2023-02-01T08:50:43;8.20;;;2.50;;
64037;SDS011;54641;50.168;8.492;2023-02-01T08:53:13;13.20;;;3.30;;
64037;SDS011;54641;50.168;8.492;2023-02-01T08:55:44;8.30;;;2.40;;
64037;SDS011;54641;50.168;8.492;2023-02-01T08:58:15;14.20;;;3.30;;
64037;SDS011;54641;50.168;8.492;2023-02-01T09:00:47;6.60;;;2.40;;
64037;SDS011;54641;50.168;8.492;2023-02-01T09:03:17;8.10;;;2.40;;
64037;SDS011;54641;50.168;8.492;2023-02-01T09:05:48;8.60;;;2.80;;
64037;SDS011;54641;50.168;8.492;2023-02-01T09:14:41;7.90;;;2.40;;
64037;SDS011;54641;50.168;8.492;2023-02-01T09:17:11;8.30;;;2.30;;
64037;SDS011;54641;50.168;8.492;2023-02-01T09:19:42;11.30;;;2.60;;
64037;SDS011;54641;50.168;8.492;2023-02-01T09:22:12;11.30;;;2.90;;
64037;SDS011;54641;50.168;8.492;2023-02-01T09:24:44;11.90;;;2.90;;
64037;SDS011;54641;50.168;8.492;2023-02-01T09:27:15;6.90;;;2.50;;
64037;SDS011;54641;50.168;8.492;2023-02-01T09:29:45;7.10;;;2.70;;
64037;SDS011;54641;50.168;8.492;2023-02-01T09:32:20;5.60;;;2.20;;
64037;SDS011;54641;50.168;8.492;2023-02-01T09:34:51;10.20;;;2.60;;
64037;SDS011;54641;50.168;8.492;2023-02-01T09:37:22;7.50;;;2.30;;
64037;SDS011;54641;50.168;8.492;2023-02-01T09:39:52;10.50;;;2.90;;
64037;SDS011;54641;50.168;8.492;2023-02-01T09:42:26;10.60;;;3.40;;
64037;SDS011;54641;50.168;8.492;2023-02-01T09:45:16;7.80;;;2.60;;
64037;SDS011;54641;50.168;8.492;2023-02-01T09:47:51;6.30;;;2.60;;
64037;SDS011;54641;50.168;8.492;2023-02-01T09:50:27;11.70;;;2.50;;
64037;SDS011;54641;50.168;8.492;2023-02-01T09:53:00;8.70;;;2.70;;
64037;SDS011;54641;50.168;8.492;2023-02-01T09:55:35;10.70;;;3.00;;
64037;SDS011;54641;50.168;8.492;2023-02-01T09:58:07;7.10;;;2.70;;
64037;SDS011;54641;50.168;8.492;2023-02-01T10:00:49;10.50;;;2.60;;
64037;SDS011;54641;50.168;8.492;2023-02-01T10:03:21;9.20;;;3.30;;
64037;SDS011;54641;50.168;8.492;2023-02-01T10:06:01;11.60;;;3.10;;
64037;SDS011;54641;50.168;8.492;2023-02-01T10:08:40;9.00;;;2.30;;
64037;SDS011;54641;50.168;8.492;2023-02-01T10:11:25;8.40;;;2.70;;
64037;SDS011;54641;50.168;8.492;2023-02-01T10:14:00;12.70;;;2.80;;
64037;SDS011;54641;50.168;8.492;2023-02-01T10:16:37;8.60;;;2.10;;
64037;SDS011;54641;50.168;8.492;2023-02-01T10:19:17;7.00;;;1.80;;
64037;SDS011;54641;50.168;8.492;2023-02-01T10:21:56;6.80;;;2.20;;
64037;SDS011;54641;50.168;8.492;2023-02-01T10:24:32;9.40;;;3.10;;
64037;SDS011;54641;50.168;8.492;2023-02-01T10:27:11;7.40;;;2.00;;
64037;SDS011;54641;50.168;8.492;2023-02-01T10:29:44;10.70;;;2.50;;
64037;SDS011;54641;50.168;8.492;2023-02-01T10:32:17;6.80;;;2.40;;
64037;SDS011;54641;50.168;8.492;2023-02-01T10:37:22;11.80;;;2.90;;
64037;SDS011;54641;50.168;8.492;2023-02-01T10:39:56;6.80;;;2.60;;
64037;SDS011;54641;50.168;8.492;2023-02-01T10:42:28;7.90;;;2.40;;
64037;SDS011;54641;50.168;8.492;2023-02-01T10:44:59;7.20;;;2.20;;
64037;SDS011;54641;50.168;8.492;2023-02-01T10:47:33;4.80;;;2.00;;
64037;SDS011;54641;50.168;8.492;2023-02-01T10:50:08;8.20;;;2.90;;
64037;SDS011;54641;50.168;8.492;2023-02-01T10:52:45;8.50;;;2.20;;
64037;SDS011;54641;50.168;8.492;2023-02-01T10:57:57;4.90;;;1.70;;
64037;SDS011;54641;50.168;8.492;2023-02-01T11:00:29;9.10;;;2.90;;
64037;SDS011;54641;50.168;8.492;2023-02-01T11:03:20;8.00;;;2.60;;
64037;SDS011;54641;50.168;8.492;2023-02-01T11:06:01;9.50;;;3.00;;
64037;SDS011;54641;50.168;8.492;2023-02-01T11:08:49;13.90;;;2.50;;
64037;SDS011;54641;50.168;8.492;2023-02-01T11:11:20;8.60;;;2.30;;
64037;SDS011;54641;50.168;8.492;2023-02-01T11:13:55;7.10;;;2.50;;
64037;SDS011;54641;50.168;8.492;2023-02-01T11:16:32;8.40;;;2.70;;
64037;SDS011;54641;50.168;8.492;2023-02-01T11:19:04;7.90;;;2.00;;
64037;SDS011;54641;50.168;8.492;2023-02-01T11:21:35;6.20;;;1.70;;
64037;SDS011;54641;50.168;8.492;2023-02-01T11:24:11;19.90;;;4.20;;
64037;SDS011;54641;50.168;8.492;2023-02-01T11:26:50;8.00;;;2.50;;
64037;SDS011;54641;50.168;8.492;2023-02-01T11:29:22;10.50;;;2.20;;
64037;SDS011;54641;50.168;8.492;2023-02-01T11:31:57;8.20;;;2.30;;
64037;SDS011;54641;50.168;8.492;2023-02-01T11:34:31;10.20;;;2.10;;
64037;SDS011;54641;50.168;8.492;2023-02-01T11:37:05;7.90;;;2.10;;
64037;SDS011;54641;50.168;8.492;2023-02-01T11:39:45;12.30;;;2.60;;
64037;SDS011;54641;50.168;8.492;2023-02-01T11:42:24;9.30;;;2.40;;
64037;SDS011;54641;50.168;8.492;2023-02-01T11:47:52;7.50;;;2.50;;
64037;SDS011;54641;50.168;8.492;2023-02-01T11:50:25;8.70;;;2.70;;
64037;SDS011;54641;50.168;8.492;2023-02-01T11:53:13;8.60;;;2.70;;
64037;SDS011;54641;50.168;8.492;2023-02-01T11:55:55;8.40;;;2.50;;
64037;SDS011;54641;50.168;8.492;2023-02-01T11:58:33;8.10;;;2.80;;
64037;SDS011;54641;50.168;8.492;2023-02-01T12:01:25;10.40;;;2.60;;
64037;SDS011;54641;50.168;8.492;2023-02-01T12:07:11;7.30;;;1.90;;
64037;SDS011;54641;50.168;8.492;2023-02-01T12:09:48;9.30;;;2.50;;
64037;SDS011;54641;50.168;8.492;2023-02-01T12:12:27;11.00;;;2.40;;
64037;SDS011;54641;50.168;8.492;2023-02-01T12:15:10;9.80;;;1.90;;
64037;SDS011;54641;50.168;8.492;2023-02-01T12:17:53;10.60;;;3.70;;
64037;SDS011;54641;50.168;8.492;2023-02-01T12:20:38;6.10;;;2.00;;
64037;SDS011;54641;50.168;8.492;2023-02-01T12:23:24;6.00;;;2.50;;
64037;SDS011;54641;50.168;8.492;2023-02-01T12:31:36;8.20;;;2.30;;
64037;SDS011;54641;50.168;8.492;2023-02-01T12:34:28;7.50;;;2.60;;
64037;SDS011;54641;50.168;8.492;2023-02-01T12:37:11;7.60;;;2.30;;
64037;SDS011;54641;50.168;8.492;2023-02-01T12:39:47;7.90;;;2.10;;
64037;SDS011;54641;50.168;8.492;2023-02-01T12:42:26;7.20;;;2.10;;
64037;SDS011;54641;50.168;8.492;2023-02-01T12:44:59;8.80;;;2.00;;
64037;SDS011;54641;50.168;8.492;2023-02-01T12:47:36;6.10;;;2.20;;
64037;SDS011;54641;50.168;8.492;2023-02-01T12:50:14;12.00;;;2.30;;
64037;SDS011;54641;50.168;8.492;2023-02-01T12:52:49;6.80;;;2.20;;
64037;SDS011;54641;50.168;8.492;2023-02-01T12:55:22;7.00;;;2.10;;
64037;SDS011;54641;50.168;8.492;2023-02-01T12:57:55;8.50;;;2.30;;
64037;SDS011;54641;50.168;8.492;2023-02-01T13:00:29;7.70;;;2.00;;
64037;SDS011;54641;50.168;8.492;2023-02-01T13:03:05;6.50;;;2.40;;
64037;SDS011;54641;50.168;8.492;2023-02-01T13:05:46;5.70;;;1.70;;
64037;SDS011;54641;50.168;8.492;2023-02-01T13:08:20;5.60;;;1.90;;
64037;SDS011;54641;50.168;8.492;2023-02-01T13:13:22;7.00;;;2.60;;
64037;SDS011;54641;50.168;8.492;2023-02-01T13:15:58;6.60;;;1.40;;
64037;SDS011;54641;50.168;8.492;2023-02-01T13:18:35;8.10;;;2.30;;
64037;SDS011;54641;50.168;8.492;2023-02-01T13:21:08;10.20;;;2.50;;
64037;SDS011;54641;50.168;8.492;2023-02-01T13:23:41;11.80;;;3.20;;
64037;SDS011;54641;50.168;8.492;2023-02-01T13:26:15;7.90;;;2.10;;
64037;SDS011;54641;50.168;8.492;2023-02-01T13:28:45;9.10;;;2.00;;
64037;SDS011;54641;50.168;8.492;2023-02-01T13:31:29;9.80;;;2.20;;
64037;SDS011;54641;50.168;8.492;2023-02-01T13:34:26;5.80;;;1.60;;
64037;SDS011;54641;50.168;8.492;2023-02-01T13:37:12;7.30;;;2.30;;
64037;SDS011;54641;50.168;8.492;2023-02-01T13:39:51;8.00;;;2.00;;
64037;SDS011;54641;50.168;8.492;2023-02-01T13:42:33;9.20;;;2.20;;
64037;SDS011;54641;50.168;8.492;2023-02-01T13:45:14;9.70;;;2.20;;
64037;SDS011;54641;50.168;8.492;2023-02-01T13:47:49;7.50;;;2.10;;
64037;SDS011;54641;50.168;8.492;2023-02-01T13:50:22;8.60;;;2.10;;
64037;SDS011;54641;50.168;8.492;2023-02-01T13:52:55;7.70;;;2.10;;
64037;SDS011;54641;50.168;8.492;2023-02-01T13:55:30;4.40;;;1.60;;
64037;SDS011;54641;50.168;8.492;2023-02-01T13:58:04;7.80;;;2.30;;
64037;SDS011;54641;50.168;8.492;2023-02-01T14:00:40;8.40;;;2.40;;
64037;SDS011;54641;50.168;8.492;2023-02-01T14:03:15;7.50;;;1.70;;
64037;SDS011;54641;50.168;8.492;2023-02-01T14:09:05;6.20;;;1.80;;
64037;SDS011;54641;50.168;8.492;2023-02-01T14:11:58;14.30;;;2.10;;
64037;SDS011;54641;50.168;8.492;2023-02-01T14:23:17;8.40;;;1.90;;
64037;SDS011;54641;50.168;8.492;2023-02-01T14:26:03;9.60;;;1.50;;
64037;SDS011;54641;50.168;8.492;2023-02-01T14:28:49;8.40;;;1.90;;
64037;SDS011;54641;50.168;8.492;2023-02-01T14:34:14;7.40;;;1.80;;
64037;SDS011;54641;50.168;8.492;2023-02-01T14:36:51;9.50;;;2.10;;
64037;SDS011;54641;50.168;8.492;2023-02-01T14:39:26;7.00;;;1.70;;
64037;SDS011;54641;50.168;8.492;2023-02-01T14:42:01;6.20;;;1.60;;
64037;SDS011;54641;50.168;8.492;2023-02-01T14:44:34;7.60;;;1.70;;
64037;SDS011;54641;50.168;8.492;2023-02-01T14:47:10;7.70;;;2.50;;
64037;SDS011;54641;50.168;8.492;2023-02-01T14:50:21;6.40;;;1.70;;
64037;SDS011;54641;50.168;8.492;2023-02-01T14:55:47;9.20;;;2.10;;
64037;SDS011;54641;50.168;8.492;2023-02-01T15:00:53;7.60;;;2.50;;
64037;SDS011;54641;50.168;8.492;2023-02-01T15:03:36;7.80;;;2.30;;
64037;SDS011;54641;50.168;8.492;2023-02-01T15:06:18;6.10;;;1.50;;
64037;SDS011;54641;50.168;8.492;2023-02-01T15:08:53;10.40;;;1.90;;
64037;SDS011;54641;50.168;8.492;2023-02-01T15:11:25;8.60;;;2.20;;
64037;SDS011;54641;50.168;8.492;2023-02-01T15:13:56;8.30;;;1.50;;
64037;SDS011;54641;50.168;8.492;2023-02-01T15:16:30;7.60;;;2.00;;
64037;SDS011;54641;50.168;8.492;2023-02-01T15:19:07;8.00;;;2.20;;
64037;SDS011;54641;50.168;8.492;2023-02-01T15:21:46;12.30;;;1.90;;
64037;SDS011;54641;50.168;8.492;2023-02-01T15:24:21;12.10;;;1.70;;
64037;SDS011;54641;50.168;8.492;2023-02-01T15:26:53;9.70;;;1.90;;
64037;SDS011;54641;50.168;8.492;2023-02-01T15:29:24;6.60;;;2.40;;
64037;SDS011;54641;50.168;8.492;2023-02-01T15:32:00;7.40;;;1.80;;
64037;SDS011;54641;50.168;8.492;2023-02-01T15:34:47;5.50;;;1.60;;
64037;SDS011;54641;50.168;8.492;2023-02-01T15:37:20;6.40;;;1.40;;
64037;SDS011;54641;50.168;8.492;2023-02-01T15:40:18;6.10;;;1.80;;
64037;SDS011;54641;50.168;8.492;2023-02-01T15:42:53;9.70;;;2.20;;
64037;SDS011;54641;50.168;8.492;2023-02-01T15:45:26;7.80;;;1.80;;
64037;SDS011;54641;50.168;8.492;2023-02-01T15:47:58;6.80;;;1.80;;
64037;SDS011;54641;50.168;8.492;2023-02-01T15:50:30;7.40;;;1.90;;
64037;SDS011;54641;50.168;8.492;2023-02-01T15:53:01;3.70;;;1.20;;
64037;SDS011;54641;50.168;8.492;2023-02-01T15:55:34;6.70;;;2.00;;
64037;SDS011;54641;50.168;8.492;2023-02-01T15:58:18;5.10;;;1.70;;
64037;SDS011;54641;50.168;8.492;2023-02-01T16:00:50;9.20;;;1.70;;
64037;SDS011;54641;50.168;8.492;2023-02-01T16:03:31;9.50;;;1.50;;
64037;SDS011;54641;50.168;8.492;2023-02-01T16:06:04;7.00;;;1.90;;
64037;SDS011;54641;50.168;8.492;2023-02-01T16:11:20;8.40;;;2.00;;
64037;SDS011;54641;50.168;8.492;2023-02-01T16:13:53;4.80;;;1.60;;
64037;SDS011;54641;50.168;8.492;2023-02-01T16:16:24;7.40;;;2.00;;
64037;SDS011;54641;50.168;8.492;2023-02-01T16:18:55;5.00;;;1.20;;
64037;SDS011;54641;50.168;8.492;2023-02-01T16:21:25;5.10;;;1.40;;
64037;SDS011;54641;50.168;8.492;2023-02-01T16:23:56;5.80;;;2.00;;
64037;SDS011;54641;50.168;8.492;2023-02-01T16:26:27;7.20;;;2.00;;
64037;SDS011;54641;50.168;8.492;2023-02-01T16:28:57;6.70;;;1.40;;
64037;SDS011;54641;50.168;8.492;2023-02-01T16:33:59;11.50;;;2.20;;
64037;SDS011;54641;50.168;8.492;2023-02-01T16:36:29;4.90;;;1.90;;